ROMMA est une association bénévole à but non lucratif. Votre soutien est indispensable : ADHERER à ROMMA ou FAIRE un DON

Saint-Vallier-de-Thiey - (06, Alpes-Maritimes)

Côte-d'Azur (723 m)   Longitude: 06° 50' 21" E   Latitude: 43° 42' 8" N Station partenaire n°150
 

Détail journalier du     <<     >>

Température Precipitation Humidité Pression Vent Dir Rafale Dir. rafale
Heure (°C) (mm) (%) (hPa) (km/h) (km/h)
01:00 12.907510092N8NNO
02:00 14.307010073NNO21OSO
03:00 13.007510063ONO15O
04:00 10.508410052NNE6N
05:00 12.207010053NNE23ONO
06:00 11.407510052NE10O
07:00 10.708010053NE11NNO
08:00 9.308110072N8N
09:00 11.408610091NNO5NNO
10:00 14.4080101005NNO
11:00 15.307510111NNE6S
12:00 17.606210123SO15SO
13:00 18.805410124S13S
14:00 20.504710124S13S
15:00 20.704510134S15S
16:00 20.004910136SE16SE
17:00 19.104910145SE16SE
18:00 19.504810152SSE10SSE
19:00 15.705610161OSO6SO
20:00 13.206610171ONO5ONO
21:00 11.4072101803ONO
22:00 11.406910182N8NO
23:00 14.105510195NNO13NNO
minuit 12.106310194NNO10NNO

Graphique du 07-10-2019

 

Serveur OMMA